Truth Or Consequences Municipal Airport
KTCS : rendu visible

Aérodrome :











RETROUVEZ-NOUS SUR...

 
LOGIN :

S'inscrire | Disclaimer

   EN    FR    IT 

 









Légende :    VFR   VFR Marginal   IFR   IFR Intensif   IFR Très Intensif
Visi : 
Plafond : 
>= 8 km
>= 3000ft
5 à 8 km
1000 à 3000 ft
1500m à 5 km
500 à 1000 ft
800 à 1500m
200 à 500 ft
< 800m
< 200 ft
Symboles :   Orages  Brouillard  Fortes neiges  Fortes précipitations  Vent > 20 kt






- Altitude de l'aérodrome : 4853 ft


KTCS - Truth Or Consequences Municipal

DERNIER METAR :
  • 231053Z AUTO 22005KT 10SM CLR 09/07 A2995 RMK AO2 SLP100 T00940072

METARs EXPIRÉS :
  • 230953Z AUTO 20012KT 10SM SCT070 10/07 A2996 RMK AO2 SLP100 T01000067
  • 230853Z AUTO 20010KT 10SM CLR 10/07 A2998 RMK AO2 SLP110 T01000072 58011

TAF KTCS
Valide du 23 à 12h jusqu'au 24 à 12h UTC


231120Z 2312/2412 24010KT P6SM FEW090 FEW250
FM231600 27017G27KT P6SM FEW080 SCT250
FM240600 30010KT P6SM FEW250



MET'MAP, la Météo Aéronautique d'un coup d'oeil ! - Copyright ORBIFLY Décembre 2007 - Disclaimer

ORBIFLY MET'MAP TEAM :

Programmation & Développement : Alexandra Zaïnal
Sur une idée originale de : Baudouin d'Aumeries
Assistance à la programmation : Marc-Olivier Méhu
Soutien technique & logistique : Manuel Goepfert

Contact : metmap@orbifly.com




SOURCES & CREDITS :

   NOAA       Earth
Advisory